Time,TemperatureF,DewpointF,PressureIn,WindDirection,WindDirectionDegrees,WindSpeedMPH,WindSpeedGustMPH,Humidity,HourlyPrecipIn,Conditions,Clouds,dailyrainin,SoftwareType,DateUTC
2013-04-26 00:01:00,52.5,38.6,30.07,NE,39,3.5,3.5,59,0.00,CLR,SKC,0.00,WeatherDisplay:10.37,2013-04-26 05:01:00,
2013-04-26 00:06:00,52.5,38.6,30.06,ENE,75,4.6,4.6,59,0.00,CLR,SKC,0.00,WeatherDisplay:10.37,2013-04-26 05:06:00,
2013-04-26 00:11:00,52.3,38.8,30.06,NE,53,2.3,2.3,60,0.00,CLR,SKC,0.00,WeatherDisplay:10.37,2013-04-26 05:11:00,
2013-04-26 00:16:00,52.1,38.6,30.06,NE,40,3.2,3.2,60,0.00,CLR,SKC,0.00,WeatherDisplay:10.37,2013-04-26 05:16:00,
2013-04-26 00:21:00,52.1,38.6,30.06,NE,34,3.5,3.5,60,0.00,CLR,SKC,0.00,WeatherDisplay:10.37,2013-04-26 05:21:00,
2013-04-26 00:26:00,52.1,38.6,30.06,NE,41,5.3,5.3,60,0.00,CLR,SKC,0.00,WeatherDisplay:10.37,2013-04-26 05:26:00,
2013-04-26 00:31:00,52.0,39.0,30.06,ENE,74,3.5,3.5,61,0.00,CLR,SKC,0.00,WeatherDisplay:10.37,2013-04-26 05:31:00,
2013-04-26 00:36:00,51.9,38.9,30.06,ENE,63,2.3,2.3,61,0.00,CLR,SKC,0.00,WeatherDisplay:10.37,2013-04-26 05:36:00,
2013-04-26 00:41:00,51.8,39.2,30.07,East,91,4.2,4.2,62,0.00,CLR,SKC,0.00,WeatherDisplay:10.37,2013-04-26 05:41:00,
2013-04-26 00:46:00,51.6,39.0,30.07,NE,45,3.5,3.5,62,0.00,CLR,SKC,0.00,WeatherDisplay:10.37,2013-04-26 05:46:00,
2013-04-26 00:51:00,51.3,39.1,30.07,NNE,18,4.6,4.6,63,0.00,CLR,SKC,0.00,WeatherDisplay:10.37,2013-04-26 05:51:00,
2013-04-26 00:56:00,51.1,38.9,30.06,NE,49,3.5,3.5,63,0.00,CLR,SKC,0.00,WeatherDisplay:10.37,2013-04-26 05:56:00,
2013-04-26 01:01:00,50.9,39.1,30.07,ESE,122,4.2,4.2,64,0.00,CLR,SKC,0.00,WeatherDisplay:10.37,2013-04-26 06:01:00,
2013-04-26 01:06:00,50.8,39.1,30.07,ENE,59,4.6,4.6,64,0.00,CLR,SKC,0.00,WeatherDisplay:10.37,2013-04-26 06:06:00,
2013-04-26 01:11:00,50.6,38.9,30.07,North,358,3.5,3.5,64,0.00,CLR,SKC,0.00,WeatherDisplay:10.37,2013-04-26 06:11:00,
2013-04-26 01:16:00,50.4,39.1,30.06,East,94,4.6,4.6,65,0.00,CLR,SKC,0.00,WeatherDisplay:10.37,2013-04-26 06:16:00,
2013-04-26 01:21:00,50.4,39.1,30.06,East,90,4.6,4.6,65,0.00,CLR,SKC,0.00,WeatherDisplay:10.37,2013-04-26 06:21:00,
2013-04-26 01:26:00,50.4,39.1,30.06,NE,44,4.2,4.2,65,0.00,CLR,SKC,0.00,WeatherDisplay:10.37,2013-04-26 06:26:00,
2013-04-26 01:32:00,50.6,38.9,30.06,NE,39,5.3,5.3,64,0.00,CLR,SKC,0.00,WeatherDisplay:10.37,2013-04-26 06:32:00,
2013-04-26 01:37:00,50.9,38.7,30.06,ENE,63,5.8,5.8,63,0.00,CLR,SKC,0.00,WeatherDisplay:10.37,2013-04-26 06:37:00,
2013-04-26 01:42:00,51.1,38.9,30.06,NE,53,4.6,4.6,63,0.00,CLR,SKC,0.00,WeatherDisplay:10.37,2013-04-26 06:42:00,
2013-04-26 01:47:00,51.2,38.6,30.05,NE,53,5.8,5.8,62,0.00,CLR,SKC,0.00,WeatherDisplay:10.37,2013-04-26 06:47:00,
2013-04-26 01:52:00,51.2,38.6,30.06,ENE,59,4.6,4.6,62,0.00,CLR,SKC,0.00,WeatherDisplay:10.37,2013-04-26 06:52:00,
2013-04-26 01:57:00,51.2,38.6,30.06,ENE,61,5.8,5.8,62,0.00,CLR,SKC,0.00,WeatherDisplay:10.37,2013-04-26 06:57:00,
2013-04-26 02:02:00,51.1,38.5,30.06,NE,50,5.8,5.8,62,0.00,CLR,SKC,0.00,WeatherDisplay:10.37,2013-04-26 07:02:00,
2013-04-26 02:07:00,50.9,38.3,30.06,East,97,5.8,5.8,62,0.00,CLR,SKC,0.00,WeatherDisplay:10.37,2013-04-26 07:07:00,
2013-04-26 02:12:00,50.6,38.5,30.06,East,84,5.3,5.3,63,0.00,CLR,SKC,0.00,WeatherDisplay:10.37,2013-04-26 07:12:00,
2013-04-26 02:17:00,50.5,38.4,30.06,ENE,72,5.8,5.8,63,0.00,CLR,SKC,0.00,WeatherDisplay:10.37,2013-04-26 07:17:00,
2013-04-26 02:22:00,50.6,38.5,30.05,NE,46,5.3,5.3,63,0.00,CLR,SKC,0.00,WeatherDisplay:10.37,2013-04-26 07:22:00,
2013-04-26 02:27:00,50.6,38.1,30.05,ENE,59,5.8,5.8,62,0.00,CLR,SKC,0.00,WeatherDisplay:10.37,2013-04-26 07:27:00,
2013-04-26 02:32:00,50.7,38.1,30.05,ENE,63,4.6,4.6,62,0.00,CLR,SKC,0.00,WeatherDisplay:10.37,2013-04-26 07:32:00,
2013-04-26 02:37:00,50.8,38.2,30.05,NE,49,6.9,6.9,62,0.00,CLR,SKC,0.00,WeatherDisplay:10.37,2013-04-26 07:37:00,
2013-04-26 02:42:00,50.7,38.1,30.05,NE,39,6.9,6.9,62,0.00,CLR,SKC,0.00,WeatherDisplay:10.37,2013-04-26 07:42:00,
2013-04-26 02:47:00,50.6,38.1,30.05,ENE,58,4.2,4.2,62,0.00,CLR,SKC,0.00,WeatherDisplay:10.37,2013-04-26 07:47:00,
2013-04-26 02:52:00,50.4,38.3,30.04,NE,54,6.9,6.9,63,0.00,CLR,SKC,0.00,WeatherDisplay:10.37,2013-04-26 07:52:00,
2013-04-26 02:57:00,50.2,38.1,30.04,ENE,58,5.8,5.8,63,0.00,CLR,SKC,0.00,WeatherDisplay:10.37,2013-04-26 07:57:00,
2013-04-26 03:02:00,50.0,37.9,30.04,East,93,5.3,5.3,63,0.00,CLR,SKC,0.00,WeatherDisplay:10.37,2013-04-26 08:02:00,
2013-04-26 03:07:00,49.9,37.8,30.04,ENE,60,3.5,3.5,63,0.00,CLR,SKC,0.00,WeatherDisplay:10.37,2013-04-26 08:07:00,
2013-04-26 03:12:00,49.7,38.0,30.04,NE,44,5.3,5.3,64,0.00,CLR,SKC,0.00,WeatherDisplay:10.37,2013-04-26 08:12:00,
2013-04-26 03:17:00,49.8,38.1,30.04,NNE,32,4.6,4.6,64,0.00,CLR,SKC,0.00,WeatherDisplay:10.37,2013-04-26 08:17:00,
2013-04-26 03:22:00,50.1,38.0,30.04,ENE,58,4.6,4.6,63,0.00,CLR,SKC,0.00,WeatherDisplay:10.37,2013-04-26 08:22:00,
2013-04-26 03:27:00,50.2,38.1,30.03,ENE,60,3.5,3.5,63,0.00,CLR,SKC,0.00,WeatherDisplay:10.37,2013-04-26 08:27:00,
2013-04-26 03:32:00,50.4,37.9,30.03,NE,49,7.4,7.4,62,0.00,CLR,SKC,0.00,WeatherDisplay:10.37,2013-04-26 08:32:00,
2013-04-26 03:37:00,50.6,37.6,30.03,ENE,75,6.9,6.9,61,0.00,CLR,SKC,0.00,WeatherDisplay:10.37,2013-04-26 08:37:00,
2013-04-26 03:42:00,50.8,37.8,30.03,ENE,78,6.9,6.9,61,0.00,CLR,SKC,0.00,WeatherDisplay:10.37,2013-04-26 08:42:00,
2013-04-26 03:47:00,51.0,37.6,30.03,ENE,60,6.9,6.9,60,0.00,CLR,SKC,0.00,WeatherDisplay:10.37,2013-04-26 08:47:00,
2013-04-26 03:52:00,51.2,37.4,30.02,ENE,60,6.9,6.9,59,0.00,CLR,SKC,0.00,WeatherDisplay:10.37,2013-04-26 08:52:00,
2013-04-26 03:57:00,51.2,37.4,30.02,ESE,110,7.4,7.4,59,0.00,CLR,SKC,0.00,WeatherDisplay:10.37,2013-04-26 08:57:00,
2013-04-26 04:02:00,51.2,37.4,30.02,ENE,59,6.9,6.9,59,0.00,CLR,SKC,0.00,WeatherDisplay:10.37,2013-04-26 09:02:00,
2013-04-26 04:07:00,51.2,37.4,30.02,SSE,150,4.6,4.6,59,0.00,CLR,SKC,0.00,WeatherDisplay:10.37,2013-04-26 09:07:00,
2013-04-26 04:12:00,51.2,37.4,30.02,ENE,64,10.6,10.6,59,0.00,CLR,SKC,0.00,WeatherDisplay:10.37,2013-04-26 09:12:00,
2013-04-26 04:17:00,51.1,37.3,30.02,ESE,122,6.4,6.4,59,0.00,CLR,SKC,0.00,WeatherDisplay:10.37,2013-04-26 09:17:00,
2013-04-26 04:22:00,51.1,37.3,30.01,ESE,103,6.9,6.9,59,0.00,CLR,SKC,0.00,WeatherDisplay:10.37,2013-04-26 09:22:00,
2013-04-26 04:27:00,51.1,37.3,30.02,NE,54,5.8,5.8,59,0.00,CLR,SKC,0.00,WeatherDisplay:10.37,2013-04-26 09:27:00,
2013-04-26 04:32:00,51.1,37.3,30.01,SE,131,8.5,8.5,59,0.00,CLR,SKC,0.00,WeatherDisplay:10.37,2013-04-26 09:32:00,
2013-04-26 04:37:00,51.2,37.4,30.01,ENE,75,7.4,7.4,59,0.00,CLR,SKC,0.00,WeatherDisplay:10.37,2013-04-26 09:37:00,
2013-04-26 04:42:00,51.1,37.3,30.01,NE,44,8.5,8.5,59,0.00,CLR,SKC,0.00,WeatherDisplay:10.37,2013-04-26 09:42:00,
2013-04-26 04:47:00,51.2,37.4,30.01,SE,126,6.9,6.9,59,0.00,CLR,SKC,0.00,WeatherDisplay:10.37,2013-04-26 09:47:00,
2013-04-26 04:52:00,51.1,37.3,30.01,ENE,77,6.9,6.9,59,0.00,CLR,SKC,0.00,WeatherDisplay:10.37,2013-04-26 09:52:00,
2013-04-26 04:57:00,51.2,36.9,30.01,ENE,63,5.8,5.8,58,0.00,CLR,SKC,0.00,WeatherDisplay:10.37,2013-04-26 09:57:00,
2013-04-26 05:02:00,51.2,37.4,30.01,East,99,6.9,6.9,59,0.00,CLR,SKC,0.00,WeatherDisplay:10.37,2013-04-26 10:02:00,
2013-04-26 05:07:00,51.3,37.0,30.01,ESE,104,6.9,6.9,58,0.00,CLR,SKC,0.00,WeatherDisplay:10.37,2013-04-26 10:07:00,
2013-04-26 05:12:00,51.3,37.0,30.02,ENE,57,4.6,4.6,58,0.00,CLR,SKC,0.00,WeatherDisplay:10.37,2013-04-26 10:12:00,
2013-04-26 05:17:00,51.2,36.9,30.02,ENE,67,5.8,5.8,58,0.00,CLR,SKC,0.00,WeatherDisplay:10.37,2013-04-26 10:17:00,
2013-04-26 05:22:00,51.0,37.2,30.02,ENE,72,6.9,6.9,59,0.00,CLR,SKC,0.00,WeatherDisplay:10.37,2013-04-26 10:22:00,
2013-04-26 05:27:00,50.9,37.1,30.02,ENE,76,3.5,3.5,59,0.00,CLR,SKC,0.00,WeatherDisplay:10.37,2013-04-26 10:27:00,
2013-04-26 05:32:00,50.9,37.1,30.02,ENE,58,4.6,4.6,59,0.00,CLR,SKC,0.00,WeatherDisplay:10.37,2013-04-26 10:32:00,
2013-04-26 05:37:00,50.8,37.0,30.01,NE,51,4.6,4.6,59,0.00,CLR,SKC,0.00,WeatherDisplay:10.37,2013-04-26 10:37:00,
2013-04-26 05:42:00,50.9,37.1,30.01,NE,40,2.3,2.3,59,0.00,CLR,SKC,0.00,WeatherDisplay:10.37,2013-04-26 10:42:00,
2013-04-26 05:47:00,50.8,37.0,30.01,East,84,7.4,7.4,59,0.00,CLR,SKC,0.00,WeatherDisplay:10.37,2013-04-26 10:47:00,
2013-04-26 05:52:00,50.7,37.3,30.01,NE,50,4.6,4.6,60,0.00,CLR,SKC,0.00,WeatherDisplay:10.37,2013-04-26 10:52:00,
2013-04-26 05:57:00,50.6,37.2,30.01,NNE,32,6.9,6.9,60,0.00,CLR,SKC,0.00,WeatherDisplay:10.37,2013-04-26 10:57:00,
2013-04-26 06:02:00,50.4,37.0,30.01,NE,53,6.9,6.9,60,0.00,CLR,SKC,0.00,WeatherDisplay:10.37,2013-04-26 11:02:00,
2013-04-26 06:07:00,50.3,37.4,30.01,NE,50,6.9,6.9,61,0.00,CLR,SKC,0.00,WeatherDisplay:10.37,2013-04-26 11:07:00,
2013-04-26 06:12:00,50.1,37.2,30.01,East,80,5.8,5.8,61,0.00,CLR,SKC,0.00,WeatherDisplay:10.37,2013-04-26 11:12:00,
2013-04-26 06:17:00,50.0,37.5,30.01,ESE,116,5.3,5.3,62,0.00,CLR,SKC,0.00,WeatherDisplay:10.37,2013-04-26 11:17:00,
2013-04-26 06:22:00,49.6,37.5,30.01,NE,56,7.4,7.4,63,0.00,CLR,SKC,0.00,WeatherDisplay:10.37,2013-04-26 11:22:00,
2013-04-26 06:27:00,49.4,37.3,30.01,ENE,64,5.8,5.8,63,0.00,CLR,SKC,0.00,WeatherDisplay:10.37,2013-04-26 11:27:00,
2013-04-26 06:32:00,49.3,37.6,30.02,ENE,78,3.5,3.5,64,0.00,CLR,SKC,0.00,WeatherDisplay:10.37,2013-04-26 11:32:00,
2013-04-26 06:37:00,49.4,37.7,30.02,ENE,68,6.9,6.9,64,0.00,CLR,SKC,0.00,WeatherDisplay:10.37,2013-04-26 11:37:00,
2013-04-26 06:42:00,49.5,37.8,30.02,ESE,120,6.9,6.9,64,0.00,CLR,SKC,0.00,WeatherDisplay:10.37,2013-04-26 11:42:00,
2013-04-26 06:47:00,49.5,38.2,30.02,East,96,9.5,9.5,65,0.00,CLR,SKC,0.00,WeatherDisplay:10.37,2013-04-26 11:47:00,
2013-04-26 06:52:00,49.6,38.3,30.02,ENE,75,5.3,5.3,65,0.00,CLR,SKC,0.00,WeatherDisplay:10.37,2013-04-26 11:52:00,
2013-04-26 06:57:00,49.7,38.8,30.02,ESE,119,4.6,4.6,66,0.00,CLR,SKC,0.00,WeatherDisplay:10.37,2013-04-26 11:57:00,
2013-04-26 07:02:00,49.7,38.8,30.02,ENE,68,7.4,7.4,66,0.00,CLR,SKC,0.00,WeatherDisplay:10.37,2013-04-26 12:02:00,
2013-04-26 07:07:00,49.8,38.9,30.02,NE,51,7.4,7.4,66,0.00,CLR,SKC,0.00,WeatherDisplay:10.37,2013-04-26 12:07:00,
2013-04-26 07:12:00,49.7,39.2,30.02,East,99,6.4,6.4,67,0.00,CLR,SKC,0.00,WeatherDisplay:10.37,2013-04-26 12:12:00,
2013-04-26 07:17:00,49.7,39.2,30.03,SE,132,5.3,5.3,67,0.00,CLR,SKC,0.00,WeatherDisplay:10.37,2013-04-26 12:17:00,
2013-04-26 07:22:00,49.7,39.6,30.03,East,86,3.5,3.5,68,0.00,CLR,SKC,0.00,WeatherDisplay:10.37,2013-04-26 12:22:00,
2013-04-26 07:28:00,49.7,39.9,30.03,ENE,69,5.3,5.3,69,0.00,CLR,SKC,0.00,WeatherDisplay:10.37,2013-04-26 12:28:00,
2013-04-26 07:33:00,49.9,40.1,30.03,NE,46,4.6,4.6,69,0.00,CLR,SKC,0.00,WeatherDisplay:10.37,2013-04-26 12:33:00,
2013-04-26 07:38:00,50.1,40.3,30.03,ENE,59,4.6,4.6,69,0.00,CLR,SKC,0.00,WeatherDisplay:10.37,2013-04-26 12:38:00,
2013-04-26 07:43:00,50.3,40.5,30.03,ENE,69,6.9,6.9,69,0.00,CLR,SKC,0.00,WeatherDisplay:10.37,2013-04-26 12:43:00,
2013-04-26 07:48:00,50.6,40.8,30.03,ENE,66,3.5,3.5,69,0.00,CLR,SKC,0.00,WeatherDisplay:10.37,2013-04-26 12:48:00,
2013-04-26 07:53:00,51.0,41.2,30.04,NE,41,5.3,5.3,69,0.00,CLR,SKC,0.00,WeatherDisplay:10.37,2013-04-26 12:53:00,
2013-04-26 07:58:00,51.3,41.5,30.04,East,89,6.4,6.4,69,0.00,CLR,SKC,0.00,WeatherDisplay:10.37,2013-04-26 12:58:00,
2013-04-26 08:03:00,51.6,41.8,30.04,ENE,65,8.5,8.5,69,0.00,CLR,SKC,0.00,WeatherDisplay:10.37,2013-04-26 13:03:00,
2013-04-26 08:08:00,52.0,42.1,30.04,ESE,108,8.5,8.5,69,0.00,CLR,SKC,0.00,WeatherDisplay:10.37,2013-04-26 13:08:00,
2013-04-26 08:13:00,52.3,42.4,30.05,ESE,113,8.5,8.5,69,0.00,CLR,SKC,0.00,WeatherDisplay:10.37,2013-04-26 13:13:00,
2013-04-26 08:18:00,52.5,42.6,30.04,East,100,6.4,6.4,69,0.00,CLR,SKC,0.00,WeatherDisplay:10.37,2013-04-26 13:18:00,
2013-04-26 08:23:00,52.6,42.7,30.05,ENE,73,10.6,10.6,69,0.00,CLR,SKC,0.00,WeatherDisplay:10.37,2013-04-26 13:23:00,
2013-04-26 08:28:00,52.8,42.9,30.05,ENE,76,7.4,7.4,69,0.00,CLR,SKC,0.00,WeatherDisplay:10.37,2013-04-26 13:28:00,
2013-04-26 08:33:00,53.0,43.5,30.05,East,84,8.5,8.5,70,0.00,CLR,SKC,0.00,WeatherDisplay:10.37,2013-04-26 13:33:00,
2013-04-26 08:38:00,53.6,44.0,30.05,ESE,109,8.5,8.5,70,0.00,CLR,SKC,0.00,WeatherDisplay:10.37,2013-04-26 13:38:00,
2013-04-26 08:43:00,54.2,44.2,30.05,ENE,64,7.4,7.4,69,0.00,CLR,SKC,0.00,WeatherDisplay:10.37,2013-04-26 13:43:00,
2013-04-26 08:48:00,54.5,44.2,30.05,ENE,62,10.6,10.6,68,0.00,CLR,SKC,0.00,WeatherDisplay:10.37,2013-04-26 13:48:00,
2013-04-26 08:53:00,54.6,44.2,30.05,ESE,122,9.5,9.5,68,0.00,CLR,SKC,0.00,WeatherDisplay:10.37,2013-04-26 13:53:00,
2013-04-26 08:58:00,54.9,44.5,30.05,ESE,104,9.2,9.2,68,0.00,CLR,SKC,0.00,WeatherDisplay:10.37,2013-04-26 13:58:00,
2013-04-26 09:03:00,55.2,44.4,30.05,ESE,119,12.7,12.7,67,0.00,CLR,SKC,0.00,WeatherDisplay:10.37,2013-04-26 14:03:00,
2013-04-26 09:08:00,55.2,44.4,30.05,ESE,113,10.6,10.6,67,0.00,CLR,SKC,0.00,WeatherDisplay:10.37,2013-04-26 14:08:00,
2013-04-26 09:13:00,55.4,44.6,30.05,NE,54,11.7,11.7,67,0.00,CLR,SKC,0.00,WeatherDisplay:10.37,2013-04-26 14:13:00,
2013-04-26 09:18:00,55.9,45.1,30.05,ENE,61,12.7,12.7,67,0.00,CLR,SKC,0.00,WeatherDisplay:10.37,2013-04-26 14:18:00,
2013-04-26 09:26:00,57.1,45.4,30.05,East,86,15.0,15.0,65,0.00,CLR,SKC,0.00,WeatherDisplay:10.37,2013-04-26 14:26:00,
2013-04-26 09:31:00,57.3,45.2,30.05,ESE,122,15.0,15.0,64,0.00,CLR,SKC,0.00,WeatherDisplay:10.37,2013-04-26 14:31:00,
2013-04-26 09:36:00,57.6,45.5,30.05,East,81,10.4,10.4,64,0.00,CLR,SKC,0.00,WeatherDisplay:10.37,2013-04-26 14:36:00,
2013-04-26 09:41:00,57.9,45.8,30.05,ESE,105,13.8,13.8,64,0.00,CLR,SKC,0.00,WeatherDisplay:10.37,2013-04-26 14:41:00,
2013-04-26 09:46:00,58.4,45.8,30.06,ESE,117,9.5,9.5,63,0.00,CLR,SKC,0.00,WeatherDisplay:10.37,2013-04-26 14:46:00,
2013-04-26 09:51:00,58.6,46.0,30.06,ESE,113,12.7,12.7,63,0.00,CLR,SKC,0.00,WeatherDisplay:10.37,2013-04-26 14:51:00,
2013-04-26 09:56:00,58.8,45.8,30.06,East,98,11.7,11.7,62,0.00,CLR,SKC,0.00,WeatherDisplay:10.37,2013-04-26 14:56:00,
2013-04-26 10:01:00,59.0,45.6,30.06,ESE,109,11.7,11.7,61,0.00,CLR,SKC,0.00,WeatherDisplay:10.37,2013-04-26 15:01:00,
2013-04-26 10:06:00,59.0,45.6,30.06,East,94,11.7,11.7,61,0.00,CLR,SKC,0.00,WeatherDisplay:10.37,2013-04-26 15:06:00,
2013-04-26 10:11:00,59.4,46.4,30.06,ENE,66,12.7,12.7,62,0.00,CLR,SKC,0.00,WeatherDisplay:10.37,2013-04-26 15:11:00,
2013-04-26 10:16:00,59.8,45.9,30.06,ENE,66,13.8,13.8,60,0.00,CLR,SKC,0.00,WeatherDisplay:10.37,2013-04-26 15:16:00,
2013-04-26 10:21:00,60.1,46.2,30.06,ESE,104,8.5,8.5,60,0.00,CLR,SKC,0.00,WeatherDisplay:10.37,2013-04-26 15:21:00,
2013-04-26 10:26:00,60.6,46.2,30.06,SE,125,11.7,11.7,59,0.00,CLR,SKC,0.00,WeatherDisplay:10.37,2013-04-26 15:26:00,
2013-04-26 10:31:00,60.9,46.5,30.06,SE,127,13.8,13.8,59,0.00,CLR,SKC,0.00,WeatherDisplay:10.37,2013-04-26 15:31:00,
2013-04-26 10:36:00,61.3,46.8,30.06,ESE,122,11.7,11.7,59,0.00,CLR,SKC,0.00,WeatherDisplay:10.37,2013-04-26 15:36:00,
2013-04-26 10:41:00,61.9,47.0,30.06,East,94,11.7,11.7,58,0.00,CLR,SKC,0.00,WeatherDisplay:10.37,2013-04-26 15:41:00,
2013-04-26 10:46:00,62.2,46.3,30.06,East,87,12.7,12.7,56,0.00,CLR,SKC,0.00,WeatherDisplay:10.37,2013-04-26 15:46:00,
2013-04-26 10:51:00,62.0,46.1,30.06,SSE,148,12.7,12.7,56,0.00,CLR,SKC,0.00,WeatherDisplay:10.37,2013-04-26 15:51:00,
2013-04-26 10:56:00,62.4,46.0,30.06,ESE,117,16.1,16.1,55,0.00,CLR,SKC,0.00,WeatherDisplay:10.37,2013-04-26 15:56:00,
2013-04-26 11:01:00,62.6,46.7,30.06,ESE,103,15.0,15.0,56,0.00,CLR,SKC,0.00,WeatherDisplay:10.37,2013-04-26 16:01:00,
2013-04-26 11:06:00,62.6,46.7,30.06,SE,126,13.8,13.8,56,0.00,CLR,SKC,0.00,WeatherDisplay:10.37,2013-04-26 16:06:00,
2013-04-26 11:11:00,63.2,47.2,30.06,East,79,14.8,14.8,56,0.00,CLR,SKC,0.00,WeatherDisplay:10.37,2013-04-26 16:11:00,
2013-04-26 11:16:00,63.1,46.2,30.06,East,90,17.3,17.3,54,0.00,CLR,SKC,0.00,WeatherDisplay:10.37,2013-04-26 16:16:00,
2013-04-26 11:21:00,63.3,46.4,30.06,ESE,121,17.0,17.0,54,0.00,CLR,SKC,0.00,WeatherDisplay:10.37,2013-04-26 16:21:00,
2013-04-26 11:26:00,63.7,47.2,30.07,East,99,11.7,11.7,55,0.00,CLR,SKC,0.00,WeatherDisplay:10.37,2013-04-26 16:26:00,
2013-04-26 11:31:00,63.7,46.7,30.06,East,87,13.8,13.8,54,0.00,CLR,SKC,0.00,WeatherDisplay:10.37,2013-04-26 16:31:00,
2013-04-26 11:36:00,63.6,47.1,30.06,SE,127,13.8,13.8,55,0.00,CLR,SKC,0.00,WeatherDisplay:10.37,2013-04-26 16:36:00,
2013-04-26 11:41:00,64.2,47.7,30.06,ENE,77,11.7,11.7,55,0.00,CLR,SKC,0.00,WeatherDisplay:10.37,2013-04-26 16:41:00,
2013-04-26 11:46:00,64.6,47.1,30.06,ESE,112,15.9,15.9,53,0.00,CLR,SKC,0.00,WeatherDisplay:10.37,2013-04-26 16:46:00,
2013-04-26 11:51:00,64.9,48.3,30.06,East,96,7.4,7.4,55,0.00,CLR,SKC,0.00,WeatherDisplay:10.37,2013-04-26 16:51:00,
2013-04-26 11:56:00,65.3,47.7,30.06,ENE,73,11.7,11.7,53,0.00,CLR,SKC,0.00,WeatherDisplay:10.37,2013-04-26 16:56:00,
2013-04-26 12:01:00,65.5,47.4,30.06,ENE,60,19.6,19.6,52,0.00,CLR,SKC,0.00,WeatherDisplay:10.37,2013-04-26 17:01:00,
2013-04-26 12:06:00,65.0,46.9,30.06,ESE,113,17.0,17.0,52,0.00,CLR,SKC,0.00,WeatherDisplay:10.37,2013-04-26 17:06:00,
2013-04-26 12:11:00,64.9,47.9,30.06,East,92,15.0,15.0,54,0.00,CLR,SKC,0.00,WeatherDisplay:10.37,2013-04-26 17:11:00,
2013-04-26 12:16:00,65.3,48.2,30.06,SE,141,14.8,14.8,54,0.00,CLR,SKC,0.00,WeatherDisplay:10.37,2013-04-26 17:16:00,
2013-04-26 12:21:00,65.3,47.2,30.06,ESE,117,14.8,14.8,52,0.00,CLR,SKC,0.00,WeatherDisplay:10.37,2013-04-26 17:21:00,
2013-04-26 12:26:00,65.2,47.6,30.06,East,82,9.2,9.2,53,0.00,CLR,SKC,0.00,WeatherDisplay:10.37,2013-04-26 17:26:00,
2013-04-26 12:31:00,65.4,47.8,30.06,NE,49,13.8,13.8,53,0.00,CLR,SKC,0.00,WeatherDisplay:10.37,2013-04-26 17:31:00,
2013-04-26 12:36:00,65.7,47.1,30.06,East,92,12.7,12.7,51,0.00,CLR,SKC,0.00,WeatherDisplay:10.37,2013-04-26 17:36:00,
2013-04-26 12:41:00,66.1,48.0,30.06,SE,141,15.0,15.0,52,0.00,CLR,SKC,0.00,WeatherDisplay:10.37,2013-04-26 17:41:00,
2013-04-26 13:00:00,66.5,48.3,30.06,ESE,110,13.8,13.8,52,0.00,CLR,SKC,0.00,WeatherDisplay:10.37,2013-04-26 18:00:00,
2013-04-26 13:05:00,66.6,48.4,30.05,SE,128,14.8,14.8,52,0.00,CLR,SKC,0.00,WeatherDisplay:10.37,2013-04-26 18:05:00,
2013-04-26 13:10:00,66.8,47.6,30.05,ESE,119,13.8,13.8,50,0.00,CLR,SKC,0.00,WeatherDisplay:10.37,2013-04-26 18:10:00,
2013-04-26 13:15:00,66.7,48.0,30.06,East,82,17.0,17.0,51,0.00,CLR,SKC,0.00,WeatherDisplay:10.37,2013-04-26 18:15:00,
2013-04-26 13:20:00,67.3,48.0,30.06,ESE,105,15.0,15.0,50,0.00,CLR,SKC,0.00,WeatherDisplay:10.37,2013-04-26 18:20:00,
2013-04-26 13:25:00,67.5,49.3,30.05,ESE,119,15.0,15.0,52,0.00,CLR,SKC,0.00,WeatherDisplay:10.37,2013-04-26 18:25:00,
2013-04-26 13:30:00,67.7,49.4,30.05,SE,127,10.6,10.6,52,0.00,CLR,SKC,0.00,WeatherDisplay:10.37,2013-04-26 18:30:00,
2013-04-26 13:35:00,67.6,49.3,30.06,NNE,20,12.7,12.7,52,0.00,CLR,SKC,0.00,WeatherDisplay:10.37,2013-04-26 18:35:00,
2013-04-26 13:40:00,67.4,48.6,30.05,ENE,70,12.7,12.7,51,0.00,CLR,SKC,0.00,WeatherDisplay:10.37,2013-04-26 18:40:00,
2013-04-26 13:45:00,67.0,49.3,30.05,East,97,18.4,18.4,53,0.00,CLR,SKC,0.00,WeatherDisplay:10.37,2013-04-26 18:45:00,
2013-04-26 13:50:00,67.1,48.4,30.05,ESE,117,19.6,19.6,51,0.00,CLR,SKC,0.00,WeatherDisplay:10.37,2013-04-26 18:50:00,
2013-04-26 13:55:00,66.8,49.1,30.05,SE,141,10.4,10.4,53,0.00,CLR,SKC,0.00,WeatherDisplay:10.37,2013-04-26 18:55:00,
2013-04-26 14:00:00,66.8,49.1,30.05,ESE,111,13.8,13.8,53,0.00,CLR,SKC,0.00,WeatherDisplay:10.37,2013-04-26 19:00:00,
2013-04-26 14:05:00,66.7,49.5,30.05,ESE,114,12.7,12.7,54,0.00,CLR,SKC,0.00,WeatherDisplay:10.37,2013-04-26 19:05:00,
2013-04-26 14:10:00,66.9,49.2,30.05,ESE,111,10.6,10.6,53,0.00,CLR,SKC,0.00,WeatherDisplay:10.37,2013-04-26 19:10:00,
2013-04-26 14:15:00,67.2,49.5,30.05,East,98,14.8,14.8,53,0.00,CLR,SKC,0.00,WeatherDisplay:10.37,2013-04-26 19:15:00,
2013-04-26 14:20:00,67.3,49.1,30.05,ESE,122,12.7,12.7,52,0.00,CLR,SKC,0.00,WeatherDisplay:10.37,2013-04-26 19:20:00,
2013-04-26 14:25:00,67.6,49.3,30.04,SE,126,7.4,7.4,52,0.00,CLR,SKC,0.00,WeatherDisplay:10.37,2013-04-26 19:25:00,
2013-04-26 14:30:00,67.0,48.3,30.05,East,101,12.7,12.7,51,0.00,CLR,SKC,0.00,WeatherDisplay:10.37,2013-04-26 19:30:00,
2013-04-26 14:35:00,66.5,49.8,30.05,ENE,64,9.5,9.5,55,0.00,CLR,SKC,0.00,WeatherDisplay:10.37,2013-04-26 19:35:00,
2013-04-26 14:40:00,66.5,48.8,30.05,East,94,12.7,12.7,53,0.00,CLR,SKC,0.00,WeatherDisplay:10.37,2013-04-26 19:40:00,
2013-04-26 14:45:00,66.4,49.7,30.05,NE,49,9.5,9.5,55,0.00,CLR,SKC,0.00,WeatherDisplay:10.37,2013-04-26 19:45:00,
2013-04-26 14:50:00,66.2,49.1,30.05,SE,132,11.5,11.5,54,0.00,CLR,SKC,0.00,WeatherDisplay:10.37,2013-04-26 19:50:00,
2013-04-26 14:55:00,66.2,49.1,30.05,ENE,78,4.6,4.6,54,0.00,CLR,SKC,0.00,WeatherDisplay:10.37,2013-04-26 19:55:00,
2013-04-26 15:00:00,66.6,48.4,30.05,East,99,9.2,9.2,52,0.00,CLR,SKC,0.00,WeatherDisplay:10.37,2013-04-26 20:00:00,
2013-04-26 15:05:00,67.0,49.3,30.05,East,80,11.7,11.7,53,0.00,CLR,SKC,0.00,WeatherDisplay:10.37,2013-04-26 20:05:00,
2013-04-26 15:10:00,67.0,48.8,30.05,ESE,122,11.5,11.5,52,0.00,CLR,SKC,0.00,WeatherDisplay:10.37,2013-04-26 20:10:00,
2013-04-26 15:15:00,66.7,49.0,30.05,ENE,72,15.9,15.9,53,0.00,CLR,SKC,0.00,WeatherDisplay:10.37,2013-04-26 20:15:00,
2013-04-26 15:20:00,66.5,49.8,30.05,East,91,9.5,9.5,55,0.00,CLR,SKC,0.00,WeatherDisplay:10.37,2013-04-26 20:20:00,
2013-04-26 15:25:00,66.8,49.6,30.05,ESE,122,12.7,12.7,54,0.00,CLR,SKC,0.00,WeatherDisplay:10.37,2013-04-26 20:25:00,
2013-04-26 15:30:00,67.1,49.9,30.04,ESE,120,15.0,15.0,54,0.00,CLR,SKC,0.00,WeatherDisplay:10.37,2013-04-26 20:30:00,
2013-04-26 15:35:00,66.8,49.6,30.05,ESE,107,10.6,10.6,54,0.00,CLR,SKC,0.00,WeatherDisplay:10.37,2013-04-26 20:35:00,
2013-04-26 15:40:00,66.6,49.9,30.04,SE,127,12.7,12.7,55,0.00,CLR,SKC,0.00,WeatherDisplay:10.37,2013-04-26 20:40:00,
2013-04-26 15:45:00,66.8,49.1,30.04,ESE,103,13.8,13.8,53,0.00,CLR,SKC,0.00,WeatherDisplay:10.37,2013-04-26 20:45:00,
2013-04-26 15:50:00,67.0,49.8,30.05,East,84,13.8,13.8,54,0.00,CLR,SKC,0.00,WeatherDisplay:10.37,2013-04-26 20:50:00,
2013-04-26 15:55:00,66.6,49.4,30.05,SE,139,9.5,9.5,54,0.00,CLR,SKC,0.00,WeatherDisplay:10.37,2013-04-26 20:55:00,
2013-04-26 16:00:00,66.4,50.2,30.05,SE,134,15.0,15.0,56,0.00,CLR,SKC,0.00,WeatherDisplay:10.37,2013-04-26 21:00:00,
2013-04-26 16:05:00,65.9,49.8,30.05,East,94,12.7,12.7,56,0.00,CLR,SKC,0.00,WeatherDisplay:10.37,2013-04-26 21:05:00,
2013-04-26 16:10:00,65.6,50.0,30.05,ESE,117,8.5,8.5,57,0.00,CLR,SKC,0.00,WeatherDisplay:10.37,2013-04-26 21:10:00,
2013-04-26 16:15:00,64.7,50.0,30.06,East,79,16.1,16.1,59,0.00,CLR,SKC,0.00,WeatherDisplay:10.37,2013-04-26 21:15:00,
2013-04-26 16:20:00,63.9,49.7,30.06,East,80,13.8,13.8,60,0.00,CLR,SKC,0.00,WeatherDisplay:10.37,2013-04-26 21:20:00,
2013-04-26 16:25:00,63.4,49.7,30.06,ESE,110,13.8,13.8,61,0.00,CLR,SKC,0.00,WeatherDisplay:10.37,2013-04-26 21:25:00,
2013-04-26 16:30:00,62.9,49.7,30.06,ENE,64,19.1,19.1,62,0.00,CLR,SKC,0.00,WeatherDisplay:10.37,2013-04-26 21:30:00,
2013-04-26 16:35:00,62.6,49.4,30.06,ENE,75,16.1,16.1,62,0.00,CLR,SKC,0.00,WeatherDisplay:10.37,2013-04-26 21:35:00,
2013-04-26 16:40:00,62.3,49.1,30.06,ENE,67,11.5,11.5,62,0.00,CLR,SKC,0.00,WeatherDisplay:10.37,2013-04-26 21:40:00,
2013-04-26 16:45:00,62.0,49.3,30.07,East,87,12.7,12.7,63,0.00,CLR,SKC,0.00,WeatherDisplay:10.37,2013-04-26 21:45:00,
2013-04-26 16:50:00,61.8,49.5,30.07,East,101,11.7,11.7,64,0.00,CLR,SKC,0.00,WeatherDisplay:10.37,2013-04-26 21:50:00,
2013-04-26 16:55:00,61.9,49.6,30.07,SE,137,13.8,13.8,64,0.00,CLR,SKC,0.00,WeatherDisplay:10.37,2013-04-26 21:55:00,
2013-04-26 17:00:00,62.1,49.8,30.07,ENE,73,11.7,11.7,64,0.00,CLR,SKC,0.00,WeatherDisplay:10.37,2013-04-26 22:00:00,
2013-04-26 17:05:00,62.5,49.7,30.07,ESE,104,13.8,13.8,63,0.00,CLR,SKC,0.00,WeatherDisplay:10.37,2013-04-26 22:05:00,
2013-04-26 17:10:00,62.5,49.7,30.07,SE,146,13.8,13.8,63,0.00,CLR,SKC,0.00,WeatherDisplay:10.37,2013-04-26 22:10:00,
2013-04-26 17:15:00,62.5,49.7,30.07,ESE,110,10.6,10.6,63,0.00,CLR,SKC,0.00,WeatherDisplay:10.37,2013-04-26 22:15:00,
2013-04-26 17:20:00,62.5,49.7,30.07,NE,51,8.1,8.1,63,0.00,CLR,SKC,0.00,WeatherDisplay:10.37,2013-04-26 22:20:00,
2013-04-26 17:25:00,62.7,49.9,30.07,ESE,114,10.6,10.6,63,0.00,CLR,SKC,0.00,WeatherDisplay:10.37,2013-04-26 22:25:00,
2013-04-26 17:30:00,63.1,49.9,30.07,ENE,72,10.6,10.6,62,0.00,CLR,SKC,0.00,WeatherDisplay:10.37,2013-04-26 22:30:00,
2013-04-26 17:35:00,63.3,49.6,30.07,SE,124,13.8,13.8,61,0.00,CLR,SKC,0.00,WeatherDisplay:10.37,2013-04-26 22:35:00,
2013-04-26 17:40:00,63.6,50.3,30.07,ESE,121,8.5,8.5,62,0.00,CLR,SKC,0.00,WeatherDisplay:10.37,2013-04-26 22:40:00,
2013-04-26 17:45:00,63.9,50.2,30.07,East,94,9.5,9.5,61,0.00,CLR,SKC,0.00,WeatherDisplay:10.37,2013-04-26 22:45:00,
2013-04-26 17:50:00,64.0,49.8,30.07,ESE,102,9.5,9.5,60,0.00,CLR,SKC,0.00,WeatherDisplay:10.37,2013-04-26 22:50:00,
2013-04-26 17:55:00,64.1,49.9,30.07,East,79,10.4,10.4,60,0.00,CLR,SKC,0.00,WeatherDisplay:10.37,2013-04-26 22:55:00,
2013-04-26 18:00:00,64.0,50.3,30.07,ESE,115,9.2,9.2,61,0.00,CLR,SKC,0.00,WeatherDisplay:10.37,2013-04-26 23:00:00,
2013-04-26 18:05:00,64.2,50.0,30.07,NE,51,6.9,6.9,60,0.00,CLR,SKC,0.00,WeatherDisplay:10.37,2013-04-26 23:05:00,
2013-04-26 18:10:00,64.2,49.6,30.07,ESE,111,10.4,10.4,59,0.00,CLR,SKC,0.00,WeatherDisplay:10.37,2013-04-26 23:10:00,
2013-04-26 18:16:00,64.1,49.9,30.07,ENE,75,8.1,8.1,60,0.00,CLR,SKC,0.00,WeatherDisplay:10.37,2013-04-26 23:16:00,
2013-04-26 18:21:00,64.0,49.8,30.08,ESE,114,6.4,6.4,60,0.00,CLR,SKC,0.00,WeatherDisplay:10.37,2013-04-26 23:21:00,
2013-04-26 18:26:00,63.8,49.6,30.07,NE,49,8.5,8.5,60,0.00,CLR,SKC,0.00,WeatherDisplay:10.37,2013-04-26 23:26:00,
2013-04-26 18:31:00,63.8,49.6,30.07,ESE,113,13.8,13.8,60,0.00,CLR,SKC,0.00,WeatherDisplay:10.37,2013-04-26 23:31:00,
2013-04-26 18:36:00,63.5,49.4,30.08,SE,125,12.7,12.7,60,0.00,CLR,SKC,0.00,WeatherDisplay:10.37,2013-04-26 23:36:00,
2013-04-26 18:41:00,63.0,49.3,30.08,ESE,112,11.5,11.5,61,0.00,CLR,SKC,0.00,WeatherDisplay:10.37,2013-04-26 23:41:00,
2013-04-26 18:46:00,62.8,49.1,30.08,ENE,76,11.7,11.7,61,0.00,CLR,SKC,0.00,WeatherDisplay:10.37,2013-04-26 23:46:00,
2013-04-26 18:51:00,62.7,49.1,30.08,ESE,104,12.7,12.7,61,0.00,CLR,SKC,0.00,WeatherDisplay:10.37,2013-04-26 23:51:00,
2013-04-26 19:05:00,61.8,48.6,30.08,East,82,10.6,10.6,62,0.00,CLR,SKC,0.00,WeatherDisplay:10.37,2013-04-27 00:05:00,
2013-04-26 19:10:00,61.2,48.1,30.09,ENE,74,12.7,12.7,62,0.00,CLR,SKC,0.00,WeatherDisplay:10.37,2013-04-27 00:10:00,
2013-04-26 19:15:00,60.5,48.3,30.09,SE,133,8.1,8.1,64,0.00,CLR,SKC,0.00,WeatherDisplay:10.37,2013-04-27 00:15:00,
2013-04-26 19:20:00,59.9,48.1,30.09,ENE,71,10.6,10.6,65,0.00,CLR,SKC,0.00,WeatherDisplay:10.37,2013-04-27 00:20:00,
2013-04-26 19:25:00,59.2,47.8,30.09,ENE,68,13.8,13.8,66,0.00,CLR,SKC,0.00,WeatherDisplay:10.37,2013-04-27 00:25:00,
2013-04-26 19:30:00,58.6,47.7,30.09,ENE,58,10.6,10.6,67,0.00,CLR,SKC,0.00,WeatherDisplay:10.37,2013-04-27 00:30:00,
2013-04-26 19:35:00,58.3,47.8,30.09,ENE,71,11.7,11.7,68,0.00,CLR,SKC,0.00,WeatherDisplay:10.37,2013-04-27 00:35:00,
2013-04-26 19:40:00,58.1,47.6,30.09,ESE,103,10.6,10.6,68,0.00,CLR,SKC,0.00,WeatherDisplay:10.37,2013-04-27 00:40:00,
2013-04-26 19:45:00,57.8,47.7,30.10,ENE,62,8.5,8.5,69,0.00,CLR,SKC,0.00,WeatherDisplay:10.37,2013-04-27 00:45:00,
2013-04-26 19:50:00,57.4,47.7,30.10,ENE,65,7.4,7.4,70,0.00,CLR,SKC,0.00,WeatherDisplay:10.37,2013-04-27 00:50:00,
2013-04-26 19:55:00,56.9,47.6,30.10,East,101,9.5,9.5,71,0.00,CLR,SKC,0.00,WeatherDisplay:10.37,2013-04-27 00:55:00,
2013-04-26 20:00:00,56.6,47.3,30.10,ENE,58,7.4,7.4,71,0.00,CLR,SKC,0.00,WeatherDisplay:10.37,2013-04-27 01:00:00,
2013-04-26 20:05:00,56.1,47.2,30.10,SSE,157,15.0,15.0,72,0.00,CLR,SKC,0.00,WeatherDisplay:10.37,2013-04-27 01:05:00,
2013-04-26 20:10:00,55.4,47.2,30.10,ENE,58,9.5,9.5,74,0.00,CLR,SKC,0.00,WeatherDisplay:10.37,2013-04-27 01:10:00,
2013-04-26 20:15:00,54.8,47.0,30.10,East,101,9.2,9.2,75,0.00,CLR,SKC,0.00,WeatherDisplay:10.37,2013-04-27 01:15:00,
2013-04-26 20:21:00,54.3,46.9,30.10,SE,138,8.1,8.1,76,0.00,CLR,SKC,0.00,WeatherDisplay:10.37,2013-04-27 01:21:00,
2013-04-26 20:26:00,53.9,46.9,30.10,ESE,105,6.4,6.4,77,0.00,CLR,SKC,0.00,WeatherDisplay:10.37,2013-04-27 01:26:00,
2013-04-26 20:31:00,53.6,46.9,30.10,East,99,6.9,6.9,78,0.00,CLR,SKC,0.00,WeatherDisplay:10.37,2013-04-27 01:31:00,
2013-04-26 20:36:00,53.3,46.6,30.11,ENE,75,4.6,4.6,78,0.00,CLR,SKC,0.00,WeatherDisplay:10.37,2013-04-27 01:36:00,
2013-04-26 20:41:00,52.9,46.6,30.11,NE,46,4.6,4.6,79,0.00,CLR,SKC,0.00,WeatherDisplay:10.37,2013-04-27 01:41:00,
2013-04-26 20:46:00,52.5,46.5,30.11,ENE,58,3.5,3.5,80,0.00,CLR,SKC,0.00,WeatherDisplay:10.37,2013-04-27 01:46:00,
2013-04-26 20:51:00,52.2,46.5,30.11,East,95,5.8,5.8,81,0.00,CLR,SKC,0.00,WeatherDisplay:10.37,2013-04-27 01:51:00,
2013-04-26 20:56:00,51.8,46.2,30.12,ENE,76,4.6,4.6,81,0.00,CLR,SKC,0.00,WeatherDisplay:10.37,2013-04-27 01:56:00,
2013-04-26 21:01:00,51.5,46.2,30.12,ENE,75,3.5,3.5,82,0.00,CLR,SKC,0.00,WeatherDisplay:10.37,2013-04-27 02:01:00,
2013-04-26 21:06:00,51.2,45.9,30.13,East,79,4.6,4.6,82,0.00,CLR,SKC,0.00,WeatherDisplay:10.37,2013-04-27 02:06:00,
2013-04-26 21:11:00,51.0,46.0,30.13,ENE,73,4.2,4.2,83,0.00,CLR,SKC,0.00,WeatherDisplay:10.37,2013-04-27 02:11:00,
2013-04-26 21:16:00,50.7,45.7,30.14,ENE,62,3.5,3.5,83,0.00,CLR,SKC,0.00,WeatherDisplay:10.37,2013-04-27 02:16:00,
2013-04-26 21:21:00,50.4,45.7,30.14,ENE,65,3.5,3.5,84,0.00,CLR,SKC,0.00,WeatherDisplay:10.37,2013-04-27 02:21:00,
2013-04-26 21:26:00,50.2,45.6,30.14,ESE,117,2.1,2.1,84,0.00,CLR,SKC,0.00,WeatherDisplay:10.37,2013-04-27 02:26:00,
2013-04-26 21:31:00,50.0,45.7,30.14,ESE,105,3.2,3.2,85,0.00,CLR,SKC,0.00,WeatherDisplay:10.37,2013-04-27 02:31:00,
2013-04-26 21:36:00,49.9,45.6,30.15,ENE,71,2.3,2.3,85,0.00,CLR,SKC,0.00,WeatherDisplay:10.37,2013-04-27 02:36:00,
2013-04-26 21:41:00,49.8,45.5,30.15,East,93,1.2,1.2,85,0.00,CLR,SKC,0.00,WeatherDisplay:10.37,2013-04-27 02:41:00,
2013-04-26 21:46:00,49.6,45.3,30.15,ENE,77,2.3,2.3,85,0.00,CLR,SKC,0.00,WeatherDisplay:10.37,2013-04-27 02:46:00,
2013-04-26 21:51:00,49.3,45.3,30.15,ENE,70,2.3,2.3,86,0.00,CLR,SKC,0.00,WeatherDisplay:10.37,2013-04-27 02:51:00,
2013-04-26 21:56:00,49.2,45.2,30.16,NE,51,2.3,2.3,86,0.00,CLR,SKC,0.00,WeatherDisplay:10.37,2013-04-27 02:56:00,
2013-04-26 22:01:00,48.8,44.8,30.15,ENE,60,2.1,2.1,86,0.00,CLR,SKC,0.00,WeatherDisplay:10.37,2013-04-27 03:01:00,
2013-04-26 22:06:00,48.5,44.8,30.15,NNE,26,2.3,2.3,87,0.00,CLR,SKC,0.00,WeatherDisplay:10.37,2013-04-27 03:06:00,
2013-04-26 22:11:00,48.5,44.8,30.15,ENE,69,1.2,1.2,87,0.00,CLR,SKC,0.00,WeatherDisplay:10.37,2013-04-27 03:11:00,
2013-04-26 22:16:00,48.6,45.2,30.15,NNE,18,3.2,3.2,88,0.00,CLR,SKC,0.00,WeatherDisplay:10.37,2013-04-27 03:16:00,
2013-04-26 22:21:00,48.7,45.3,30.15,NE,44,3.5,3.5,88,0.00,CLR,SKC,0.00,WeatherDisplay:10.37,2013-04-27 03:21:00,
2013-04-26 22:26:00,48.8,45.4,30.15,ENE,65,2.3,2.3,88,0.00,CLR,SKC,0.00,WeatherDisplay:10.37,2013-04-27 03:26:00,
2013-04-26 22:31:00,48.7,45.3,30.15,ENE,60,2.3,2.3,88,0.00,CLR,SKC,0.00,WeatherDisplay:10.37,2013-04-27 03:31:00,
2013-04-26 22:36:00,48.6,45.2,30.15,NE,39,2.3,2.3,88,0.00,CLR,SKC,0.00,WeatherDisplay:10.37,2013-04-27 03:36:00,
2013-04-26 22:41:00,48.5,45.1,30.15,ENE,76,0.0,0.0,88,0.00,CLR,SKC,0.00,WeatherDisplay:10.37,2013-04-27 03:41:00,
2013-04-26 22:46:00,48.3,44.9,30.15,NE,39,1.2,1.2,88,0.00,CLR,SKC,0.00,WeatherDisplay:10.37,2013-04-27 03:46:00,
2013-04-26 22:51:00,48.2,45.1,30.15,NE,51,2.3,2.3,89,0.00,CLR,SKC,0.00,WeatherDisplay:10.37,2013-04-27 03:51:00,
2013-04-26 22:56:00,48.2,45.1,30.15,NE,49,3.2,3.2,89,0.00,CLR,SKC,0.00,WeatherDisplay:10.37,2013-04-27 03:56:00,
2013-04-26 23:01:00,48.3,45.2,30.14,NE,44,4.6,4.6,89,0.00,CLR,SKC,0.00,WeatherDisplay:10.37,2013-04-27 04:01:00,
2013-04-26 23:06:00,48.3,45.2,30.14,ENE,65,2.3,2.3,89,0.00,CLR,SKC,0.00,WeatherDisplay:10.37,2013-04-27 04:06:00,
2013-04-26 23:11:00,48.1,45.0,30.14,ENE,65,0.0,0.0,89,0.00,CLR,SKC,0.00,WeatherDisplay:10.37,2013-04-27 04:11:00,
2013-04-26 23:16:00,47.8,44.7,30.14,ENE,65,0.0,0.0,89,0.00,CLR,SKC,0.00,WeatherDisplay:10.37,2013-04-27 04:16:00,
2013-04-26 23:21:00,47.6,44.8,30.14,ENE,64,0.0,0.0,90,0.00,CLR,SKC,0.00,WeatherDisplay:10.37,2013-04-27 04:21:00,
2013-04-26 23:26:00,47.5,44.7,30.14,East,89,0.0,0.0,90,0.00,CLR,SKC,0.00,WeatherDisplay:10.37,2013-04-27 04:26:00,
2013-04-26 23:31:00,47.3,44.5,30.15,ESE,120,0.0,0.0,90,0.00,CLR,SKC,0.00,WeatherDisplay:10.37,2013-04-27 04:31:00,
2013-04-26 23:36:00,47.0,44.2,30.15,ESE,120,0.0,0.0,90,0.00,CLR,SKC,0.00,WeatherDisplay:10.37,2013-04-27 04:36:00,
2013-04-26 23:42:00,46.6,43.8,30.15,ESE,120,0.0,0.0,90,0.00,CLR,SKC,0.00,WeatherDisplay:10.37,2013-04-27 04:42:00,
2013-04-26 23:47:00,46.3,44.1,30.15,ESE,120,0.0,0.0,92,0.00,CLR,SKC,0.00,WeatherDisplay:10.37,2013-04-27 04:47:00,
2013-04-26 23:52:00,46.1,43.6,30.15,ESE,120,0.0,0.0,91,0.00,CLR,SKC,0.00,WeatherDisplay:10.37,2013-04-27 04:52:00,
2013-04-26 23:57:00,45.9,43.4,30.15,ESE,120,0.0,0.0,91,0.00,CLR,SKC,0.00,WeatherDisplay:10.37,2013-04-27 04:57:00,